createdAt,value
2022-08-26T00:04:32.559Z,101668.31
2022-08-26T00:10:21.375Z,101662.25
2022-08-26T00:16:14.894Z,101665.09
2022-08-26T00:28:40.351Z,101670.44
2022-08-26T00:34:27.715Z,101678.59
2022-08-26T00:40:18.935Z,101683.09
2022-08-26T00:46:11.857Z,101677.63
2022-08-26T00:52:03.148Z,101680.94
2022-08-26T00:57:51.281Z,101683.91
2022-08-26T01:03:39.267Z,101673.34
2022-08-26T01:09:26.966Z,101686.53
2022-08-26T01:15:20.402Z,101674.53
2022-08-26T01:21:36.426Z,101683.91
2022-08-26T01:27:35.497Z,101685.63
2022-08-26T01:33:42.379Z,101674.22
2022-08-26T01:39:52.039Z,101684.84
2022-08-26T01:45:41.140Z,101676.69
2022-08-26T01:51:31.937Z,101680.78
2022-08-26T01:57:28.371Z,101691.06
2022-08-26T02:03:24.556Z,101697.31
2022-08-26T02:09:16.501Z,101689.91
2022-08-26T02:15:11.143Z,101693.28
2022-08-26T02:20:59.198Z,101699.38
2022-08-26T02:26:55.413Z,101700.44
2022-08-26T02:32:49.830Z,101693.72
2022-08-26T02:38:37.156Z,101697.44
2022-08-26T02:44:24.300Z,101694.13
2022-08-26T02:50:12.857Z,101694.13
2022-08-26T02:55:59.979Z,101696.31
2022-08-26T03:01:49.836Z,101700.84
2022-08-26T03:07:37.169Z,101689.97
2022-08-26T03:13:26.901Z,101701.63
2022-08-26T03:19:17.609Z,101707.63
2022-08-26T03:25:07.185Z,101700.69
2022-08-26T03:30:54.237Z,101707.84
2022-08-26T03:36:41.630Z,101706.84
2022-08-26T03:42:29.328Z,101703.75
2022-08-26T03:48:16.222Z,101705.16
2022-08-26T03:54:04.152Z,101707.94
2022-08-26T03:59:53.059Z,101708.75
2022-08-26T04:05:40.575Z,101707.84
2022-08-26T04:11:34.114Z,101704.03
2022-08-26T04:17:24.864Z,101709.63
2022-08-26T04:23:16.778Z,101704.66
2022-08-26T04:29:10.057Z,101707.88
2022-08-26T04:34:56.942Z,101705.34
2022-08-26T04:40:48.086Z,101705.91
2022-08-26T04:46:36.464Z,101707.69
2022-08-26T04:52:30.958Z,101703.00
2022-08-26T04:58:20.015Z,101705.63
2022-08-26T05:04:08.190Z,101704.69
2022-08-26T05:09:55.597Z,101703.50
2022-08-26T05:15:43.461Z,101712.28
2022-08-26T05:21:32.434Z,101702.81
2022-08-26T05:27:19.633Z,101709.66
2022-08-26T05:33:08.221Z,101706.22
2022-08-26T05:38:56.401Z,101713.16
2022-08-26T05:44:55.634Z,101725.44
2022-08-26T05:50:49.445Z,101713.84
2022-08-26T05:56:36.969Z,101711.69
2022-08-26T06:02:24.183Z,101717.38
2022-08-26T06:08:11.265Z,101719.72
2022-08-26T06:14:03.936Z,101721.72
2022-08-26T06:19:51.105Z,101723.19
2022-08-26T06:25:39.369Z,101727.78
2022-08-26T06:31:27.309Z,101737.22
2022-08-26T06:37:15.442Z,101726.06
2022-08-26T06:43:04.333Z,101722.47
2022-08-26T06:48:53.432Z,101731.00
2022-08-26T06:54:43.193Z,101719.09
2022-08-26T07:00:33.311Z,101743.94
2022-08-26T07:06:20.942Z,101751.16
2022-08-26T07:12:10.855Z,101739.31
2022-08-26T07:17:57.708Z,101748.13
2022-08-26T07:23:45.336Z,101748.13
2022-08-26T07:29:34.948Z,101753.16
2022-08-26T07:35:21.803Z,101744.72
2022-08-26T07:41:13.302Z,101749.69
2022-08-26T07:47:00.696Z,101736.31
2022-08-26T07:52:48.248Z,101728.56
2022-08-26T07:58:35.518Z,101725.94
2022-08-26T08:04:26.662Z,101715.72
2022-08-26T08:10:20.975Z,101697.34
2022-08-26T08:16:20.324Z,101705.34
2022-08-26T08:28:57.565Z,101692.72
2022-08-26T08:34:44.957Z,101679.53
2022-08-26T08:40:33.021Z,101664.66
2022-08-26T08:46:20.632Z,101675.72
2022-08-26T08:52:23.214Z,101681.56
2022-08-26T08:58:24.430Z,101680.63
2022-08-26T09:12:18.367Z,101671.94
2022-08-26T09:19:18.818Z,101659.53
2022-08-26T09:25:11.556Z,101659.53
2022-08-26T09:31:13.174Z,101656.59
2022-08-26T09:37:00.193Z,101659.34
2022-08-26T09:43:22.165Z,101654.41
2022-08-26T09:49:41.103Z,101664.81
2022-08-26T09:55:35.515Z,101665.84
2022-08-26T10:01:42.091Z,101647.44
2022-08-26T10:07:44.576Z,101648.69
2022-08-26T10:14:13.805Z,101647.84
2022-08-26T10:20:25.615Z,101638.19
2022-08-26T10:27:05.350Z,101628.50
2022-08-26T10:33:31.933Z,101628.81
2022-08-26T10:40:04.285Z,101634.22
2022-08-26T10:46:02.470Z,101627.34
2022-08-26T10:59:45.090Z,101623.22
2022-08-26T11:05:40.318Z,101615.72
2022-08-26T11:11:51.763Z,101608.38
2022-08-26T11:17:45.561Z,101609.56
2022-08-26T11:23:37.805Z,101618.69
2022-08-26T11:38:04.304Z,101614.78
2022-08-26T11:51:40.179Z,101596.50
2022-08-26T11:58:11.298Z,101590.78
2022-08-26T12:04:30.477Z,101583.97
2022-08-26T12:10:33.794Z,101589.28
2022-08-26T12:16:48.246Z,101582.84
2022-08-26T12:22:36.194Z,101585.28
2022-08-26T12:28:50.448Z,101582.66
2022-08-26T12:34:49.104Z,101578.75
2022-08-26T12:40:50.774Z,101568.78
2022-08-26T12:46:50.062Z,101574.66
2022-08-26T12:52:52.931Z,101563.97
2022-08-26T12:58:40.386Z,101568.50
2022-08-26T13:04:37.268Z,101563.94
2022-08-26T13:10:41.785Z,101560.78
2022-08-26T13:16:29.197Z,101553.88
2022-08-26T13:22:22.126Z,101542.72
2022-08-26T13:28:17.134Z,101530.50
2022-08-26T13:34:15.316Z,101525.31
2022-08-26T13:40:07.760Z,101523.25
2022-08-26T13:47:01.641Z,101516.00
2022-08-26T13:53:18.927Z,101516.16
2022-08-26T13:59:07.154Z,101507.31
2022-08-26T14:05:16.452Z,101501.97
2022-08-26T14:11:03.450Z,101498.84
2022-08-26T14:17:26.305Z,101494.31
2022-08-26T14:24:22.472Z,101483.06
2022-08-26T14:31:18.227Z,101482.53
2022-08-26T14:38:19.927Z,101469.56
2022-08-26T14:44:32.143Z,101472.56
2022-08-26T14:50:42.522Z,101464.34
2022-08-26T14:56:33.851Z,101469.44
2022-08-26T15:02:33.556Z,101478.56
2022-08-26T15:08:20.856Z,101481.72
2022-08-26T15:14:08.782Z,101469.75
2022-08-26T15:20:10.624Z,101470.59
2022-08-26T15:25:57.390Z,101471.88
2022-08-26T15:31:44.936Z,101466.47
2022-08-26T15:37:32.573Z,101481.50
2022-08-26T15:43:28.876Z,101473.13
2022-08-26T15:49:18.786Z,101473.56
2022-08-26T15:55:09.334Z,101473.72
2022-08-26T16:00:56.695Z,101451.25
2022-08-26T16:06:47.539Z,101444.97
2022-08-26T16:12:34.431Z,101447.38
2022-08-26T16:18:23.543Z,101447.66
2022-08-26T16:24:10.996Z,101441.34
2022-08-26T16:29:58.645Z,101427.72
2022-08-26T16:35:48.007Z,101434.66
2022-08-26T16:41:35.719Z,101439.25
2022-08-26T16:47:23.843Z,101430.19
2022-08-26T16:58:58.540Z,101427.06
2022-08-26T17:04:50.333Z,101435.25
2022-08-26T17:10:40.718Z,101440.44
2022-08-26T17:16:28.003Z,101425.06
2022-08-26T17:22:16.629Z,101430.91
2022-08-26T17:28:04.103Z,101427.38
2022-08-26T17:34:00.814Z,101427.63
2022-08-26T17:39:52.730Z,101427.31
2022-08-26T17:45:46.347Z,101431.81
2022-08-26T17:51:35.649Z,101433.41
2022-08-26T17:57:23.865Z,101429.44
2022-08-26T18:03:11.819Z,101431.09
2022-08-26T18:09:11.322Z,101428.25
2022-08-26T18:14:58.458Z,101435.19
2022-08-26T18:20:45.937Z,101437.59
2022-08-26T18:26:41.061Z,101441.97
2022-08-26T18:32:28.428Z,101440.97
2022-08-26T18:38:17.762Z,101443.78
2022-08-26T18:44:12.971Z,101448.38
2022-08-26T18:50:03.510Z,101447.25
2022-08-26T18:55:51.088Z,101439.81
2022-08-26T19:01:42.720Z,101449.06
2022-08-26T19:07:29.752Z,101449.59
2022-08-26T19:13:17.542Z,101456.94
2022-08-26T19:19:06.213Z,101454.81
2022-08-26T19:24:53.251Z,101452.63
2022-08-26T19:30:45.260Z,101449.63
2022-08-26T19:36:33.155Z,101472.00
2022-08-26T19:42:22.979Z,101458.66
2022-08-26T19:48:29.156Z,101461.78
2022-08-26T19:54:17.232Z,101467.31
2022-08-26T20:00:08.919Z,101473.03
2022-08-26T20:06:18.686Z,101472.25
2022-08-26T20:12:12.962Z,101479.09
2022-08-26T20:18:01.439Z,101483.06
2022-08-26T20:23:48.798Z,101487.22
2022-08-26T20:29:37.307Z,101491.06
2022-08-26T20:35:34.240Z,101491.56
2022-08-26T20:41:22.135Z,101501.16
2022-08-26T20:47:10.525Z,101505.66
2022-08-26T20:52:59.458Z,101499.94
2022-08-26T20:58:46.364Z,101504.44
2022-08-26T21:04:33.718Z,101511.94
2022-08-26T21:10:23.083Z,101506.44
2022-08-26T21:16:13.776Z,101510.97
2022-08-26T21:22:01.006Z,101518.56
2022-08-26T21:27:48.042Z,101503.63
2022-08-26T21:33:35.545Z,101516.09
2022-08-26T21:39:25.696Z,101513.38
2022-08-26T21:45:12.863Z,101529.78
2022-08-26T21:50:59.806Z,101522.13
2022-08-26T21:56:50.383Z,101533.34
2022-08-26T22:02:37.623Z,101526.88
2022-08-26T22:08:24.523Z,101534.91
2022-08-26T22:14:17.436Z,101539.13
2022-08-26T22:20:06.284Z,101544.81
2022-08-26T22:25:58.386Z,101545.78
2022-08-26T22:31:45.746Z,101546.72
2022-08-26T22:37:32.992Z,101548.78
2022-08-26T22:43:20.322Z,101545.19
2022-08-26T22:49:15.808Z,101544.31
2022-08-26T22:55:10.992Z,101543.81
2022-08-26T23:01:01.066Z,101545.94
2022-08-26T23:06:52.883Z,101553.81
2022-08-26T23:12:40.845Z,101550.84
2022-08-26T23:19:03.020Z,101564.28
2022-08-26T23:24:50.223Z,101554.84
2022-08-26T23:30:37.375Z,101561.50
2022-08-26T23:36:28.043Z,101567.00
2022-08-26T23:42:22.976Z,101565.44
2022-08-26T23:48:10.395Z,101562.44
2022-08-26T23:53:57.996Z,101561.00
2022-08-26T23:59:45.007Z,101565.25
